Time;durP1;ratioP1;P1;durP2;ratioP2;P2;SDS_P1;SDS_P2;PMS_P1;PMS_P2;Temp;Humidity;BMP_temperature;BMP_pressure;BME280_temperature;BME280_humidity;BME280_pressure;Samples;Min_cycle;Max_cycle;Signal;HPM_P1;HPM_P2
2023/07/18 00:01:15;;;;;;;1999.90;999.90;;;;;;;24.87;100.00;98188.19;5097132;28;20082;-75
2023/07/18 00:03:41;;;;;;;1999.90;999.90;;;;;;;24.84;100.00;98186.16;5095334;28;20024;-73
2023/07/18 00:06:06;;;;;;;1999.90;999.90;;;;;;;24.82;100.00;98186.53;5092995;28;20032;-73
2023/07/18 00:08:31;;;;;;;1999.90;999.90;;;;;;;24.77;100.00;98180.44;5093081;28;20067;-72
2023/07/18 00:10:57;;;;;;;1999.90;999.90;;;;;;;24.65;100.00;98177.91;5093167;28;20052;-74
2023/07/18 00:13:23;;;;;;;1999.90;999.90;;;;;;;24.60;100.00;98184.66;5093387;28;20046;-74
2023/07/18 00:15:49;;;;;;;1999.90;999.90;;;;;;;24.61;100.00;98169.47;5092935;28;20426;-74
2023/07/18 00:18:14;;;;;;;1999.90;999.90;;;;;;;24.63;100.00;98178.28;5092817;28;20027;-74
2023/07/18 00:20:40;;;;;;;1999.90;999.90;;;;;;;24.55;100.00;98170.19;5074764;28;20039;-75
2023/07/18 00:23:09;;;;;;;1999.90;999.90;;;;;;;24.45;100.00;98155.72;5072802;28;20059;-74
2023/07/18 00:25:35;;;;;;;1999.90;999.90;;;;;;;24.63;100.00;98144.72;5072418;28;20100;-74
2023/07/18 00:28:01;;;;;;;1999.90;999.90;;;;;;;24.71;100.00;98140.81;5072431;28;20111;-74
2023/07/18 00:30:26;;;;;;;1999.90;999.90;;;;;;;24.70;100.00;98147.59;5072525;28;20052;-74
2023/07/18 00:32:52;;;;;;;1999.90;999.90;;;;;;;24.68;100.00;98146.38;5072600;28;20124;-73
2023/07/18 00:35:17;;;;;;;1999.90;999.90;;;;;;;24.61;100.00;98143.50;5083696;28;20039;-75
2023/07/18 00:37:44;;;;;;;1999.90;999.90;;;;;;;24.51;100.00;98142.19;5091519;28;20024;-74
2023/07/18 00:40:12;;;;;;;1999.90;999.90;;;;;;;24.35;100.00;98139.59;5092320;28;20028;-73
2023/07/18 00:42:38;;;;;;;1999.90;999.90;;;;;;;24.26;100.00;98150.28;5092757;28;20028;-74
2023/07/18 00:45:05;;;;;;;1999.90;999.90;;;;;;;24.23;100.00;98148.25;5092432;28;20042;-75
2023/07/18 00:47:32;;;;;;;1999.90;999.90;;;;;;;24.24;100.00;98158.25;5092223;28;20043;-76
2023/07/18 00:49:58;;;;;;;1999.90;999.90;;;;;;;24.22;100.00;98163.41;5092220;28;20024;-74
2023/07/18 00:52:25;;;;;;;1999.90;999.90;;;;;;;24.13;100.00;98150.88;5091970;28;20028;-74
2023/07/18 00:54:50;;;;;;;1999.90;999.90;;;;;;;24.07;100.00;98158.78;5091950;28;20096;-73
2023/07/18 00:57:16;;;;;;;1999.90;999.90;;;;;;;24.06;100.00;98161.97;5092193;28;20426;-74
2023/07/18 00:59:41;;;;;;;1999.90;999.90;;;;;;;24.10;100.00;98166.41;5092157;28;20031;-73
2023/07/18 01:02:07;;;;;;;1999.90;999.90;;;;;;;24.10;100.00;98166.41;5091946;28;20031;-74
2023/07/18 01:04:32;;;;;;;1999.90;999.90;;;;;;;24.13;100.00;98164.88;5091639;28;20437;-74
2023/07/18 01:07:00;;;;;;;1999.90;999.90;;;;;;;24.09;100.00;98173.16;5091890;28;21516;-73
2023/07/18 01:09:25;;;;;;;1999.90;999.90;;;;;;;24.06;100.00;98162.75;5091809;28;20469;-74
2023/07/18 01:11:50;;;;;;;1999.90;999.90;;;;;;;24.00;100.00;98162.28;5089482;28;20024;-74
2023/07/18 01:14:16;;;;;;;1999.90;999.90;;;;;;;24.00;100.00;98161.47;5091489;28;20051;-73
2023/07/18 01:16:41;;;;;;;1999.90;999.90;;;;;;;23.92;100.00;98171.75;5089893;28;20028;-73
2023/07/18 01:19:07;;;;;;;1999.90;999.90;;;;;;;23.90;100.00;98162.16;5091966;28;20063;-74
2023/07/18 01:21:32;;;;;;;1999.90;999.90;;;;;;;23.92;100.00;98163.38;5091907;28;20032;-73
2023/07/18 01:23:57;;;;;;;1999.90;999.90;;;;;;;23.82;100.00;98163.22;5090300;28;20113;-75
2023/07/18 01:26:23;;;;;;;1999.90;999.90;;;;;;;23.82;100.00;98157.63;5092042;28;20074;-75
2023/07/18 01:28:49;;;;;;;1999.90;999.90;;;;;;;23.78;100.00;98165.16;5091575;28;20075;-75
2023/07/18 01:31:14;;;;;;;1999.90;999.90;;;;;;;23.80;100.00;98165.59;5091685;28;20129;-74
2023/07/18 01:33:42;;;;;;;1999.90;999.90;;;;;;;23.80;100.00;98166.41;5091565;28;20062;-74
2023/07/18 01:36:07;;;;;;;1999.90;999.90;;;;;;;23.80;100.00;98173.97;5091674;28;20028;-73
2023/07/18 01:38:34;;;;;;;1999.90;999.90;;;;;;;23.81;100.00;98164.38;5091920;28;20419;-74
2023/07/18 01:41:00;;;;;;;1999.90;999.90;;;;;;;23.78;100.00;98171.53;5091619;28;20031;-75
2023/07/18 01:43:25;;;;;;;1999.90;999.90;;;;;;;23.85;100.00;98165.25;5092085;28;20393;-74
2023/07/18 01:45:51;;;;;;;1999.90;999.90;;;;;;;23.79;100.00;98162.00;5094151;28;20020;-76
2023/07/18 01:48:18;;;;;;;1999.90;999.90;;;;;;;23.76;100.00;98161.94;5093374;28;20061;-75
2023/07/18 01:50:44;;;;;;;1999.90;999.90;;;;;;;23.66;100.00;98168.16;5096250;28;20114;-74
2023/07/18 01:53:12;;;;;;;1999.90;999.90;;;;;;;23.63;100.00;98175.31;5092236;28;20396;-74
2023/07/18 01:55:38;;;;;;;1999.90;999.90;;;;;;;23.50;100.00;98173.09;5091443;28;20032;-74
2023/07/18 01:58:04;;;;;;;1999.90;999.90;;;;;;;23.48;100.00;98172.66;5091290;28;20032;-74
2023/07/18 02:00:30;;;;;;;1999.90;999.90;;;;;;;23.43;100.00;98180.19;5090928;28;20533;-74
2023/07/18 02:02:57;;;;;;;1999.90;999.90;;;;;;;23.39;100.00;98176.53;5091270;28;20024;-74
2023/07/18 02:05:28;;;;;;;1999.90;999.90;;;;;;;23.40;100.00;98180.94;5091079;28;20477;-75
2023/07/18 02:07:54;;;;;;;1999.90;999.90;;;;;;;23.35;100.00;98181.22;5090662;28;20028;-73
2023/07/18 02:10:20;;;;;;;1999.90;999.90;;;;;;;23.30;100.00;98183.53;5090997;28;20020;-74
2023/07/18 02:12:50;;;;;;;1999.90;999.90;;;;;;;23.25;100.00;98181.03;5091386;28;20081;-75
2023/07/18 02:15:16;;;;;;;1999.90;999.90;;;;;;;23.21;100.00;98178.19;5091405;28;20396;-74
2023/07/18 02:17:42;;;;;;;1999.90;999.90;;;;;;;23.17;100.00;98176.53;5091038;28;20865;-73
2023/07/18 02:20:09;;;;;;;1999.90;999.90;;;;;;;23.17;100.00;98185.72;5091209;28;20032;-75
2023/07/18 02:22:35;;;;;;;1999.90;999.90;;;;;;;23.16;100.00;98178.50;5090690;28;20054;-73
2023/07/18 02:25:02;;;;;;;1999.90;999.90;;;;;;;23.18;100.00;98184.50;5090823;28;20109;-75
2023/07/18 02:27:30;;;;;;;1999.90;999.90;;;;;;;23.17;100.00;98184.91;5090868;28;20036;-74
2023/07/18 02:29:55;;;;;;;1999.90;999.90;;;;;;;23.14;100.00;98186.44;5090824;28;20609;-74
2023/07/18 02:32:22;;;;;;;1999.90;999.90;;;;;;;23.12;100.00;98188.78;5092142;28;20107;-74
2023/07/18 02:34:48;;;;;;;1999.90;999.90;;;;;;;23.10;100.00;98180.00;5092287;28;20174;-76
2023/07/18 02:37:13;;;;;;;1999.90;999.90;;;;;;;23.07;100.00;98191.91;5092547;28;20032;-75
2023/07/18 02:39:38;;;;;;;1999.90;999.90;;;;;;;23.07;100.00;98186.31;5091699;28;20032;-73
2023/07/18 02:42:06;;;;;;;1999.90;999.90;;;;;;;23.12;100.00;98194.38;5090788;28;20016;-74
2023/07/18 02:44:32;;;;;;;1999.90;999.90;;;;;;;23.10;100.00;98191.16;5091138;28;20061;-75
2023/07/18 02:46:57;;;;;;;1999.90;999.90;;;;;;;23.11;100.00;98198.38;5090803;28;20103;-74
2023/07/18 02:49:22;;;;;;;1999.90;999.90;;;;;;;23.11;100.00;98200.34;5090840;28;20031;-75
2023/07/18 02:51:48;;;;;;;1999.90;999.90;;;;;;;23.15;100.00;98204.00;5090761;28;20043;-74
2023/07/18 02:54:13;;;;;;;1999.90;999.90;;;;;;;23.17;100.00;98201.66;5090618;28;20079;-74
2023/07/18 02:56:39;;;;;;;1999.90;999.90;;;;;;;23.21;100.00;98208.88;5090567;28;20032;-74
2023/07/18 02:59:04;;;;;;;1999.90;999.90;;;;;;;23.20;100.00;98212.06;5090471;28;20017;-73
2023/07/18 03:01:29;;;;;;;1999.90;999.90;;;;;;;23.08;100.00;98201.09;5090374;28;20030;-74
2023/07/18 03:03:56;;;;;;;1999.90;999.90;;;;;;;23.06;100.00;98211.78;5090579;28;20024;-74
2023/07/18 03:06:23;;;;;;;1999.90;999.90;;;;;;;23.03;100.00;98224.50;5090952;28;20095;-74
2023/07/18 03:08:49;;;;;;;1999.90;999.90;;;;;;;22.92;100.00;98218.75;5091067;28;20034;-74
2023/07/18 03:11:14;;;;;;;1999.90;999.90;;;;;;;22.99;100.00;98217.25;5090905;28;20012;-74
2023/07/18 03:13:40;;;;;;;1999.90;999.90;;;;;;;22.87;100.00;98204.28;5090130;28;20016;-74
2023/07/18 03:16:06;;;;;;;1999.90;999.90;;;;;;;22.90;100.00;98221.09;5090591;28;20032;-74
2023/07/18 03:18:32;;;;;;;1999.90;999.90;;;;;;;22.76;100.00;98222.81;5090380;28;20054;-75
2023/07/18 03:20:57;;;;;;;1999.90;999.90;;;;;;;22.78;100.00;98234.38;5094646;28;20461;-75
2023/07/18 03:23:28;;;;;;;1999.90;999.90;;;;;;;22.66;100.00;98237.34;5094515;28;20480;-74
2023/07/18 03:25:53;;;;;;;1999.90;999.90;;;;;;;22.60;100.00;98233.19;5094434;28;20115;-73
2023/07/18 03:28:19;;;;;;;1999.90;999.90;;;;;;;22.62;100.00;98231.66;5096130;28;20092;-76
2023/07/18 03:30:45;;;;;;;1999.90;999.90;;;;;;;22.48;100.00;98220.22;5087568;28;20016;-73
2023/07/18 03:33:11;;;;;;;1999.90;999.90;;;;;;;22.56;100.00;98232.31;5073400;28;20400;-74
2023/07/18 03:35:36;;;;;;;1999.90;999.90;;;;;;;22.57;100.00;98237.53;5085188;28;20067;-74
2023/07/18 03:38:02;;;;;;;1999.90;999.90;;;;;;;22.59;100.00;98237.16;5093891;28;20498;-74
2023/07/18 03:40:27;;;;;;;1999.90;999.90;;;;;;;22.60;100.00;98238.78;5093755;28;20024;-74
2023/07/18 03:42:52;;;;;;;1999.90;999.90;;;;;;;22.64;100.00;98242.47;5093593;28;20431;-73
2023/07/18 03:45:18;;;;;;;1999.90;999.90;;;;;;;22.67;100.00;98241.75;5093965;28;20497;-74
2023/07/18 03:47:44;;;;;;;1999.90;999.90;;;;;;;22.73;100.00;98243.88;5081929;28;20112;-74
2023/07/18 03:50:12;;;;;;;1999.90;999.90;;;;;;;22.65;100.00;98250.47;5072900;28;20016;-73
2023/07/18 03:52:37;;;;;;;1999.90;999.90;;;;;;;22.63;100.00;98246.41;5073391;28;20036;-73
2023/07/18 03:55:04;;;;;;;1999.90;999.90;;;;;;;22.85;100.00;98252.09;5072775;28;20020;-74
2023/07/18 03:57:30;;;;;;;1999.90;999.90;;;;;;;23.17;100.00;98252.69;5073015;28;20025;-75
2023/07/18 03:59:56;;;;;;;1999.90;999.90;;;;;;;23.42;100.00;98259.56;5075521;28;20427;-75
2023/07/18 04:02:21;;;;;;;1999.90;999.90;;;;;;;23.38;100.00;98264.25;5079267;28;20040;-75
2023/07/18 04:04:46;;;;;;;1999.90;999.90;;;;;;;23.12;100.00;98264.16;5073514;28;20435;-74
2023/07/18 04:07:12;;;;;;;1999.90;999.90;;;;;;;22.89;100.00;98261.34;5072983;28;20028;-73
2023/07/18 04:09:37;;;;;;;1999.90;999.90;;;;;;;22.78;100.00;98256.72;5072646;28;20469;-74
2023/07/18 04:12:03;;;;;;;1999.90;999.90;;;;;;;22.76;100.00;98262.66;5072980;28;20028;-74
2023/07/18 04:14:28;;;;;;;1999.90;999.90;;;;;;;22.67;100.00;98266.84;5085928;28;20400;-74
2023/07/18 04:16:53;;;;;;;1999.90;999.90;;;;;;;22.72;100.00;98263.75;5093034;28;20484;-73
2023/07/18 04:19:19;;;;;;;1999.90;999.90;;;;;;;22.73;100.00;98255.03;5093000;28;20482;-74
2023/07/18 04:21:45;;;;;;;1999.90;999.90;;;;;;;22.83;100.00;98268.41;5092923;28;20552;-74
2023/07/18 04:24:10;;;;;;;1999.90;999.90;;;;;;;22.80;100.00;98265.53;5082147;28;20029;-75
2023/07/18 04:26:36;;;;;;;1999.90;999.90;;;;;;;22.89;100.00;98280.06;5072622;28;20040;-73
2023/07/18 04:29:04;;;;;;;1999.90;999.90;;;;;;;22.84;100.00;98260.81;5072385;28;20044;-75
2023/07/18 04:31:29;;;;;;;1999.90;999.90;;;;;;;22.92;100.00;98277.34;5072486;28;20029;-74
2023/07/18 04:33:54;;;;;;;1999.90;999.90;;;;;;;22.90;100.00;98271.31;5072402;28;20033;-72
2023/07/18 04:36:19;;;;;;;1999.90;999.90;;;;;;;22.90;100.00;98276.88;5072334;28;20044;-74
2023/07/18 04:38:45;;;;;;;1999.90;999.90;;;;;;;22.88;100.00;98267.28;5072215;28;20141;-73
2023/07/18 04:41:10;;;;;;;1999.90;999.90;;;;;;;23.06;100.00;98285.19;5072331;28;20031;-73
2023/07/18 04:43:35;;;;;;;1999.90;999.90;;;;;;;23.15;100.00;98288.53;5072368;28;20082;-73
2023/07/18 04:46:01;;;;;;;1999.90;999.90;;;;;;;23.57;100.00;98299.72;5072759;28;20078;-74
2023/07/18 04:48:26;;;;;;;1999.90;999.90;;;;;;;23.80;100.00;98289.34;5072007;28;20490;-77
2023/07/18 04:50:59;;;;;;;1999.90;999.90;;;;;;;24.09;100.00;98295.41;5071874;28;20029;-75
2023/07/18 04:53:30;;;;;;;1999.90;999.90;;;;;;;24.28;100.00;98300.91;5071876;28;20029;-78
2023/07/18 04:55:56;;;;;;;1999.90;999.90;;;;;;;24.31;100.00;98292.56;5071888;28;20036;-73
2023/07/18 04:58:26;;;;;;;1999.90;999.90;;;;;;;24.55;100.00;98298.91;5071584;28;20484;-74
2023/07/18 05:00:54;;;;;;;1999.90;999.90;;;;;;;24.67;100.00;98296.66;5070484;28;20044;-73
2023/07/18 05:03:20;;;;;;;1999.90;999.90;;;;;;;24.78;100.00;98302.38;5071726;28;20024;-74
2023/07/18 05:05:45;;;;;;;1999.90;999.90;;;;;;;24.93;100.00;98298.63;5071869;28;20111;-73
2023/07/18 05:08:11;;;;;;;1999.90;999.90;;;;;;;24.93;100.00;98295.84;5071524;28;20013;-73
2023/07/18 05:10:36;;;;;;;1999.90;999.90;;;;;;;25.01;100.00;98297.53;5083297;28;20028;-74
2023/07/18 05:13:01;;;;;;;1999.90;999.90;;;;;;;25.04;100.00;98302.34;5095070;28;20033;-74
2023/07/18 05:15:27;;;;;;;1999.90;999.90;;;;;;;25.18;100.00;98302.53;5092209;28;20035;-73
2023/07/18 05:17:52;;;;;;;1999.90;999.90;;;;;;;25.25;100.00;98305.38;5091816;28;20024;-73
2023/07/18 05:20:18;;;;;;;1999.90;999.90;;;;;;;25.36;100.00;98311.13;5091420;28;20035;-72
2023/07/18 05:22:44;;;;;;;1999.90;999.90;;;;;;;25.38;100.00;98303.13;5091365;28;20092;-73
2023/07/18 05:25:12;;;;;;;1999.90;999.90;;;;;;;25.22;100.00;98311.75;5091475;28;20028;-73
2023/07/18 05:27:38;;;;;;;1999.90;999.90;;;;;;;25.28;100.00;98317.84;5091558;28;20019;-73
2023/07/18 05:30:05;;;;;;;1999.90;999.90;;;;;;;25.40;100.00;98321.19;5091298;28;20044;-73
2023/07/18 05:32:31;;;;;;;1999.90;999.90;;;;;;;25.62;100.00;98321.44;5091630;28;20067;-73
2023/07/18 05:34:59;;;;;;;1999.90;999.90;;;;;;;25.71;100.00;98316.31;5091331;28;20059;-73
2023/07/18 05:37:28;;;;;;;1999.90;999.90;;;;;;;25.44;100.00;98312.78;5091571;28;20117;-73
2023/07/18 05:39:54;;;;;;;1999.90;999.90;;;;;;;25.50;100.00;98317.69;5091300;28;20036;-73
2023/07/18 05:42:19;;;;;;;1999.90;999.90;;;;;;;25.59;100.00;98325.00;5090248;28;20028;-73
2023/07/18 05:44:45;;;;;;;1999.90;999.90;;;;;;;25.68;100.00;98323.50;5091523;28;20032;-73
2023/07/18 05:47:10;;;;;;;1999.90;999.90;;;;;;;25.87;100.00;98326.06;5091311;28;20116;-73
2023/07/18 05:49:35;;;;;;;1999.90;999.90;;;;;;;25.98;100.00;98317.75;5091377;28;20024;-73
2023/07/18 05:52:01;;;;;;;1999.90;999.90;;;;;;;26.03;100.00;98329.41;5091778;28;20110;-73
2023/07/18 05:54:28;;;;;;;1999.90;999.90;;;;;;;26.10;100.00;98318.25;5090744;28;20028;-72
2023/07/18 05:56:54;;;;;;;1999.90;999.90;;;;;;;26.32;100.00;98319.22;5091103;28;20031;-72
2023/07/18 05:59:19;;;;;;;1999.90;999.90;;;;;;;26.63;100.00;98329.84;5091187;28;20024;-72
2023/07/18 06:01:45;;;;;;;1999.90;999.90;;;;;;;26.83;98.62;98327.59;5089880;28;20093;-72
2023/07/18 06:04:10;;;;;;;1999.90;999.90;;;;;;;26.90;96.03;98327.63;5091185;28;20024;-72
2023/07/18 06:06:37;;;;;;;1999.90;999.90;;;;;;;26.81;95.78;98341.22;5091340;28;20039;-72
2023/07/18 06:09:03;;;;;;;1999.90;999.90;;;;;;;26.97;96.71;98338.09;5093247;28;20408;-74
2023/07/18 06:11:28;;;;;;;1999.90;999.90;;;;;;;26.86;97.05;98342.84;5099103;28;20020;-74
2023/07/18 06:13:53;;;;;;;1999.90;999.90;;;;;;;26.72;96.10;98337.13;5094724;28;20046;-72
2023/07/18 06:16:19;;;;;;;1999.90;999.90;;;;;;;26.71;99.99;98341.13;5091485;28;20024;-72
2023/07/18 06:18:44;;;;;;;1999.90;999.90;;;;;;;26.68;97.46;98336.31;5091202;28;20035;-73
2023/07/18 06:21:09;;;;;;;1999.90;999.90;;;;;;;26.70;98.83;98339.50;5091099;28;20032;-73
2023/07/18 06:23:35;;;;;;;1999.90;999.90;;;;;;;26.77;99.55;98333.94;5091089;28;20024;-73
2023/07/18 06:26:00;;;;;;;1999.90;999.90;;;;;;;26.71;95.74;98336.31;5089083;28;20369;-73
2023/07/18 06:28:25;;;;;;;1999.90;999.90;;;;;;;26.86;94.65;98337.22;5089949;28;20028;-71
2023/07/18 06:30:55;;;;;;;1999.90;999.90;;;;;;;26.90;95.64;98336.06;5090690;28;20043;-71
2023/07/18 06:33:21;;;;;;;1999.90;999.90;;;;;;;27.10;93.88;98342.97;5091345;28;20031;-71
2023/07/18 06:35:54;;;;;;;1999.90;999.90;;;;;;;27.16;89.63;98345.41;5090765;28;20024;-73
2023/07/18 06:38:19;;;;;;;1999.90;999.90;;;;;;;27.53;93.92;98348.75;5089340;28;20063;-72
2023/07/18 06:40:46;;;;;;;1999.90;999.90;;;;;;;27.69;92.57;98345.59;5090779;28;20146;-73
2023/07/18 06:43:12;;;;;;;1999.90;999.90;;;;;;;27.98;88.49;98353.66;5094037;28;20055;-74
2023/07/18 06:45:39;;;;;;;1999.90;999.90;;;;;;;28.23;84.90;98356.50;5091497;28;20552;-78
2023/07/18 06:48:05;;;;;;;1999.90;999.90;;;;;;;28.31;83.51;98352.47;5091686;28;20024;-78
2023/07/18 06:50:31;;;;;;;1999.90;999.90;;;;;;;28.33;87.24;98355.69;5092768;28;20114;-76
2023/07/18 06:52:56;;;;;;;1999.90;999.90;;;;;;;28.38;84.53;98360.91;5090038;28;20436;-74
2023/07/18 06:55:22;;;;;;;1999.90;999.90;;;;;;;28.43;84.78;98368.97;5096714;28;20031;-76
2023/07/18 06:57:48;;;;;;;1999.90;999.90;;;;;;;28.50;83.63;98360.50;5096414;28;20185;-75
2023/07/18 07:00:14;;;;;;;1999.90;999.90;;;;;;;28.45;85.06;98365.72;5093518;28;20024;-73
2023/07/18 07:02:39;;;;;;;1999.90;999.90;;;;;;;28.27;85.52;98367.75;5094451;28;20489;-74
2023/07/18 07:05:05;;;;;;;1999.90;999.90;;;;;;;28.39;82.76;98367.34;5094648;28;20042;-73
2023/07/18 07:07:30;;;;;;;1999.90;999.90;;;;;;;28.63;83.63;98364.50;5094770;28;20488;-74
2023/07/18 07:09:56;;;;;;;1999.90;999.90;;;;;;;28.60;84.17;98368.13;5093482;28;20028;-73
2023/07/18 07:12:21;;;;;;;1999.90;999.90;;;;;;;28.51;84.44;98361.28;5094048;28;20024;-78
2023/07/18 07:14:46;;;;;;;1999.90;999.90;;;;;;;28.22;81.04;98368.97;5093781;28;20071;-75
2023/07/18 07:17:12;;;;;;;1999.90;999.90;;;;;;;28.16;84.59;98360.09;5094356;28;20028;-76
2023/07/18 07:19:37;;;;;;;1999.90;999.90;;;;;;;28.43;80.22;98363.31;5094714;28;20469;-73
2023/07/18 07:22:02;;;;;;;1999.90;999.90;;;;;;;28.69;83.41;98364.94;5095319;28;20035;-75
2023/07/18 07:24:28;;;;;;;1999.90;999.90;;;;;;;28.75;81.83;98352.03;5094719;28;20368;-74
2023/07/18 07:26:53;;;;;;;1999.90;999.90;;;;;;;28.82;83.45;98354.03;5093539;28;20028;-73
2023/07/18 07:29:18;;;;;;;1999.90;999.90;;;;;;;29.08;81.92;98356.34;5093146;28;20033;-72
2023/07/18 07:31:44;;;;;;;1999.90;999.90;;;;;;;29.36;78.81;98359.09;5092683;28;20031;-73
2023/07/18 07:34:10;;;;;;;1999.90;999.90;;;;;;;29.53;78.20;98357.41;5093453;28;20032;-73
2023/07/18 07:36:35;;;;;;;1999.90;999.90;;;;;;;29.62;77.51;98361.38;5093541;28;20032;-72
2023/07/18 07:39:01;;;;;;;1999.90;999.90;;;;;;;29.47;76.88;98359.03;5093701;28;20425;-72
2023/07/18 07:41:26;;;;;;;1999.90;999.90;;;;;;;29.41;78.45;98352.22;5091766;28;20107;-72
2023/07/18 07:43:51;;;;;;;1999.90;999.90;;;;;;;29.53;78.08;98352.56;5093404;28;20028;-72
2023/07/18 07:46:17;;;;;;;1999.90;999.90;;;;;;;29.39;78.02;98358.28;5093803;28;20031;-73
2023/07/18 07:48:42;;;;;;;1999.90;999.90;;;;;;;29.36;78.42;98356.28;5093633;28;20020;-72
2023/07/18 07:51:07;;;;;;;1999.90;999.90;;;;;;;29.11;80.80;98364.00;5093865;28;20268;-73
2023/07/18 07:53:33;;;;;;;1999.90;999.90;;;;;;;29.35;79.24;98356.69;5093826;28;20095;-72
2023/07/18 07:55:58;;;;;;;1999.90;999.90;;;;;;;29.54;75.44;98353.38;5093873;28;20036;-73
2023/07/18 07:58:23;;;;;;;1999.90;999.90;;;;;;;29.74;79.02;98341.16;5094902;28;20085;-76
2023/07/18 08:00:49;;;;;;;1999.90;999.90;;;;;;;29.80;77.57;98338.69;5096087;28;20491;-76
2023/07/18 08:03:14;;;;;;;1999.90;999.90;;;;;;;30.03;75.17;98338.97;5095042;28;20024;-77
2023/07/18 08:05:39;;;;;;;1999.90;999.90;;;;;;;30.22;76.01;98346.88;5094294;28;20395;-76
2023/07/18 08:08:06;;;;;;;1999.90;999.90;;;;;;;30.40;71.42;98341.09;5094982;28;20535;-75
2023/07/18 08:10:31;;;;;;;1999.90;999.90;;;;;;;30.63;74.59;98344.09;5094861;28;20020;-76
2023/07/18 08:12:56;;;;;;;1999.90;999.90;;;;;;;30.57;69.93;98342.94;5095154;28;20115;-76
2023/07/18 08:15:22;;;;;;;1999.90;999.90;;;;;;;30.65;69.65;98338.81;5096079;28;20067;-72
2023/07/18 08:17:47;;;;;;;1999.90;999.90;;;;;;;30.79;72.90;98337.88;5096045;28;20028;-74
2023/07/18 08:20:13;;;;;;;1999.90;999.90;;;;;;;30.68;68.96;98332.31;5095964;28;20529;-75
2023/07/18 08:22:39;;;;;;;1999.90;999.90;;;;;;;30.39;71.30;98333.81;5102129;28;20080;-76
2023/07/18 08:25:05;;;;;;;1999.90;999.90;;;;;;;30.33;70.18;98329.81;5105732;28;20396;-73
2023/07/18 08:27:30;;;;;;;1999.90;999.90;;;;;;;30.10;70.67;98338.09;5098612;28;20020;-72
2023/07/18 08:29:56;;;;;;;1999.90;999.90;;;;;;;30.20;73.94;98334.38;5094763;28;20040;-74
2023/07/18 08:32:21;;;;;;;1999.90;999.90;;;;;;;30.12;71.38;98338.47;5092725;28;20028;-72
2023/07/18 08:34:47;;;;;;;1999.90;999.90;;;;;;;30.02;69.58;98333.72;5092598;28;20380;-74
2023/07/18 08:37:13;;;;;;;1999.90;999.90;;;;;;;30.33;71.78;98343.94;5093183;28;20051;-73
2023/07/18 08:39:38;;;;;;;1999.90;999.90;;;;;;;30.24;70.42;98337.97;5095599;28;20083;-74
2023/07/18 08:42:06;;;;;;;1999.90;999.90;;;;;;;30.64;69.39;98342.03;5093831;28;20534;-73
2023/07/18 08:44:32;;;;;;;1999.90;999.90;;;;;;;30.42;68.61;98338.63;5091383;28;20073;-73
2023/07/18 08:47:00;;;;;;;1999.90;999.90;;;;;;;30.22;69.74;98326.31;5090606;28;20016;-74
2023/07/18 08:49:28;;;;;;;1999.90;999.90;;;;;;;30.52;70.83;98339.75;5092288;28;20059;-74
2023/07/18 08:51:54;;;;;;;1999.90;999.90;;;;;;;30.37;70.50;98336.25;5092071;28;20495;-72
2023/07/18 08:54:19;;;;;;;1999.90;999.90;;;;;;;30.26;72.28;98332.72;5091125;28;20035;-73
2023/07/18 08:56:45;;;;;;;1999.90;999.90;;;;;;;30.29;71.41;98331.91;5090832;28;20028;-73
2023/07/18 08:59:13;;;;;;;1999.90;999.90;;;;;;;30.44;71.39;98333.38;5091636;28;20054;-73
2023/07/18 09:01:49;;;;;;;1999.90;999.90;;;;;;;30.47;71.11;98332.56;5092304;28;20123;-72
2023/07/18 09:04:14;;;;;;;1999.90;999.90;;;;;;;30.40;72.58;98326.97;5090145;28;20108;-72
2023/07/18 09:06:55;;;;;;;1999.90;999.90;;;;;;;29.94;72.62;98332.97;5092690;28;20106;-73
2023/07/18 09:09:23;;;;;;;1999.90;999.90;;;;;;;29.90;74.31;98325.75;5091300;28;20077;-75
2023/07/18 09:11:58;;;;;;;1999.90;999.90;;;;;;;30.15;73.69;98326.34;5089653;28;20028;-72
2023/07/18 09:14:29;;;;;;;1999.90;999.90;;;;;;;30.40;72.90;98326.97;5092153;28;20476;-74
2023/07/18 09:16:56;;;;;;;1999.90;999.90;;;;;;;30.32;71.88;98328.22;5091941;28;20473;-72
2023/07/18 09:19:39;;;;;;;1999.90;999.90;;;;;;;30.16;71.26;98319.50;5090722;28;20028;-74
2023/07/18 09:22:06;;;;;;;1999.90;999.90;;;;;;;29.79;72.69;98308.84;5091937;28;20060;-72
2023/07/18 09:24:35;;;;;;;1999.90;999.90;;;;;;;30.02;75.46;98299.84;5091693;28;20393;-72
2023/07/18 09:27:00;;;;;;;1999.90;999.90;;;;;;;30.03;72.34;98298.63;5091997;28;20034;-72
2023/07/18 09:29:26;;;;;;;1999.90;999.90;;;;;;;30.17;73.56;98309.78;5091805;28;20048;-73
2023/07/18 09:31:53;;;;;;;1999.90;999.90;;;;;;;30.24;70.14;98298.44;5092195;28;20077;-73
2023/07/18 09:34:19;;;;;;;1999.90;999.90;;;;;;;30.03;72.47;98293.78;5092056;28;20077;-72
2023/07/18 09:36:57;;;;;;;1999.90;999.90;;;;;;;30.22;71.72;98300.88;5091789;28;20024;-74
2023/07/18 09:39:23;;;;;;;1999.90;999.90;;;;;;;30.18;70.06;98292.44;5091776;28;20030;-73
2023/07/18 09:41:49;;;;;;;1999.90;999.90;;;;;;;30.28;67.23;98291.56;5091700;28;20439;-72
2023/07/18 09:44:16;;;;;;;1999.90;999.90;;;;;;;29.59;68.89;98288.06;5091880;28;20028;-72
2023/07/18 09:46:42;;;;;;;1999.90;999.90;;;;;;;29.71;68.99;98282.72;5091484;28;20031;-74
2023/07/18 09:49:08;;;;;;;1999.90;999.90;;;;;;;29.21;71.61;98289.88;5086089;28;20419;-73
2023/07/18 09:51:34;;;;;;;1999.90;999.90;;;;;;;29.28;70.72;98284.22;5090911;28;20023;-73
2023/07/18 09:54:03;;;;;;;1999.90;999.90;;;;;;;29.24;69.79;98280.63;5091337;28;20420;-73
2023/07/18 09:56:32;;;;;;;1999.90;999.90;;;;;;;29.32;70.00;98281.41;5092015;28;20523;-73
2023/07/18 09:59:01;;;;;;;1999.90;999.90;;;;;;;29.55;70.12;98276.81;5091381;28;20065;-72
2023/07/18 10:01:28;;;;;;;1999.90;999.90;;;;;;;29.73;68.45;98279.47;5091733;28;20028;-74
2023/07/18 10:03:54;;;;;;;1999.90;999.90;;;;;;;29.81;67.95;98280.25;5089482;28;20028;-74
2023/07/18 10:06:21;;;;;;;1999.90;999.90;;;;;;;29.90;67.42;98291.88;5091487;28;20024;-72
2023/07/18 10:08:47;;;;;;;1999.90;999.90;;;;;;;29.22;69.07;98283.03;5091056;28;20426;-73
2023/07/18 10:11:12;;;;;;;1999.90;999.90;;;;;;;29.46;69.92;98290.56;5091024;28;20016;-74
2023/07/18 10:13:56;;;;;;;1999.90;999.90;;;;;;;29.30;70.08;98275.34;5091413;28;20032;-73
2023/07/18 10:16:26;;;;;;;1999.90;999.90;;;;;;;29.21;71.23;98273.75;5091123;28;20031;-72
2023/07/18 10:18:52;;;;;;;1999.90;999.90;;;;;;;28.93;73.40;98261.81;5090969;28;20028;-73
2023/07/18 10:21:37;;;;;;;1999.90;999.90;;;;;;;29.17;72.88;98272.16;5091078;28;20400;-73
2023/07/18 10:24:21;;;;;;;1999.90;999.90;;;;;;;28.83;74.19;98257.03;5096844;28;20047;-74
2023/07/18 10:26:58;;;;;;;1999.90;999.90;;;;;;;29.04;73.39;98257.72;5089671;28;20036;-73
2023/07/18 10:29:28;;;;;;;1999.90;999.90;;;;;;;29.28;73.32;98256.03;5090073;28;20101;-74
2023/07/18 10:31:53;;;;;;;1999.90;999.90;;;;;;;29.47;72.15;98263.97;5090983;28;20028;-73
2023/07/18 10:34:19;;;;;;;1999.90;999.90;;;;;;;29.55;71.22;98259.06;5092360;28;20074;-75
2023/07/18 10:36:57;;;;;;;1999.90;999.90;;;;;;;29.33;73.26;98258.41;5092522;28;20058;-73
2023/07/18 10:39:39;;;;;;;1999.90;999.90;;;;;;;29.19;74.17;98259.28;5090748;28;20036;-73
2023/07/18 10:42:06;;;;;;;1999.90;999.90;;;;;;;28.93;74.04;98257.00;5090211;28;20551;-74
2023/07/18 10:44:39;;;;;;;1999.90;999.90;;;;;;;28.68;76.43;98253.47;5090887;28;20016;-72
2023/07/18 10:47:18;;;;;;;1999.90;999.90;;;;;;;28.56;77.49;98263.16;5090319;28;20028;-73